Horton, Kentucky
Current Conditions -  °F | °C
As of 8:15 PM on Saturday 20 Dec 2014 (Local Time) from K2I0 Reporting Station
Clear Clear  
Wind Chill: 31°   Ceiling: Unl
Heat Index: 31°   Visibility: 10mi
Dew Point: 27°   Wind: 3mph
Humidity: 84%   Direction: 20°NNE
Pressure: 30.29"   Gusts: NA
Location:  37.3559°N, 86.8747°W
Report Text: K2I0 210215Z AUTO 02003KT 10SM CLR M01/M03 A3029 RMK AO2 T10061030
Loading
Personal Weather Stations






























Interactive Weather Map New forecast layout! Learn more

10-Day Weather Forecast

Advertisements
Track Severe Weather on mobile